SCDH weather

Vodudahue Airport
Chaiten, Los Lagos Region, Chile

Public forecast

Using degrees Celsius for public forecast. Weather courtesy of forecast.io.

Closest aviation weather report (METAR) to Vodudahue Airport

Closest report is Chaitén Airport, 30.8 nm (57.0 km) SSW. Retrieved 2019/10/17 14:00 UTC (40 minutes ago):

SCTN 171400Z 01008KT 4000 RA SCT013 OVC020 09/08 Q1024

Closest aviation forecast (TAF) to Vodudahue Airport

Forecast is more than 12 hours old.

Closest forecast is Chaitén Airport, 30.8 nm (57.0 km) SSW. Retrieved 2018/09/16 12:33 UTC (1 year ago):

TAF SPJL 161124Z 1612/1712 VRB04KT 9999 FEW020LVA0551 161131 GG KWBCYMYX MPZZMAMX 161130 SCSCYZYX SPCH03 SCTN 161130 SPECI SCTN 161130Z 36020G31KT +RA SCT013 OVC017 11/09 Q1009